Clarks Hill, Indiana
Current Conditions -  °F | °C
As of 12:35 PM on Friday 24 Oct 2014 (Local Time) from KFKR Reporting Station
Broken Clouds Broken Clouds  
Wind Chill: 61°   Ceiling: 4600
Heat Index: 61°   Visibility: 7mi
Dew Point: 49°   Wind: 7mph
Humidity: 64%   Direction: 200°SSW
Pressure: 30.11"   Gusts: NA
Location:  40.25°N, 86.73°W
Report Text: KFKR 241635Z AUTO 20006KT 7SM SCT023 BKN046 16/09 A3011 RMK AO2 T01630094
Loading
Personal Weather Stations






























Interactive Weather Map
Tropical Storm Tracking
New forecast layout! Learn more

10-Day Weather Forecast

Advertisements
Track Severe Weather on mobile